sensor_id;sensor_type;location;lat;lon;timestamp;temperature;humidity
17944;DHT22;9097;47.028;15.444;2022-08-20T12:13:35;22.70;99.90
17944;DHT22;9097;47.028;15.444;2022-08-20T12:16:38;23.00;99.90
17944;DHT22;9097;47.028;15.444;2022-08-20T12:19:41;22.90;99.90
17944;DHT22;9097;47.028;15.444;2022-08-20T12:22:43;22.80;99.90
17944;DHT22;9097;47.028;15.444;2022-08-20T12:25:48;22.80;99.90
17944;DHT22;9097;47.028;15.444;2022-08-20T12:28:50;22.80;99.90
17944;DHT22;9097;47.028;15.444;2022-08-20T12:31:53;22.70;99.90
17944;DHT22;9097;47.028;15.444;2022-08-20T12:34:56;22.70;99.90
17944;DHT22;9097;47.028;15.444;2022-08-20T12:38:02;22.60;99.90
17944;DHT22;9097;47.028;15.444;2022-08-20T12:41:07;22.60;99.90
17944;DHT22;9097;47.028;15.444;2022-08-20T12:44:10;22.60;99.90
17944;DHT22;9097;47.028;15.444;2022-08-20T12:47:15;22.50;99.90
17944;DHT22;9097;47.028;15.444;2022-08-20T12:50:19;22.50;99.90
17944;DHT22;9097;47.028;15.444;2022-08-20T12:53:22;22.50;99.90
17944;DHT22;9097;47.028;15.444;2022-08-20T12:56:26;22.40;99.90
17944;DHT22;9097;47.028;15.444;2022-08-20T12:59:28;22.40;99.90
17944;DHT22;9097;47.028;15.444;2022-08-20T13:02:31;22.30;99.90
17944;DHT22;9097;47.028;15.444;2022-08-20T13:05:34;22.30;99.90
17944;DHT22;9097;47.028;15.444;2022-08-20T13:08:36;22.30;99.90
17944;DHT22;9097;47.028;15.444;2022-08-20T13:11:41;22.20;99.90
17944;DHT22;9097;47.028;15.444;2022-08-20T13:14:44;22.20;99.90
17944;DHT22;9097;47.028;15.444;2022-08-20T13:17:50;22.20;99.90
17944;DHT22;9097;47.028;15.444;2022-08-20T13:20:52;22.10;99.90
17944;DHT22;9097;47.028;15.444;2022-08-20T13:23:55;22.10;99.90
17944;DHT22;9097;47.028;15.444;2022-08-20T13:27:06;22.10;99.90
17944;DHT22;9097;47.028;15.444;2022-08-20T13:30:11;22.10;99.90
17944;DHT22;9097;47.028;15.444;2022-08-20T13:33:14;22.10;99.90
17944;DHT22;9097;47.028;15.444;2022-08-20T13:36:17;22.10;99.90
17944;DHT22;9097;47.028;15.444;2022-08-20T13:39:20;22.10;99.90
17944;DHT22;9097;47.028;15.444;2022-08-20T13:42:25;22.10;99.90
17944;DHT22;9097;47.028;15.444;2022-08-20T13:45:29;22.10;99.90
17944;DHT22;9097;47.028;15.444;2022-08-20T13:48:31;22.20;99.90
17944;DHT22;9097;47.028;15.444;2022-08-20T13:51:34;22.20;99.90
17944;DHT22;9097;47.028;15.444;2022-08-20T13:54:36;22.40;99.90
17944;DHT22;9097;47.028;15.444;2022-08-20T13:57:40;22.40;99.90
17944;DHT22;9097;47.028;15.444;2022-08-20T14:00:44;22.40;99.90
17944;DHT22;9097;47.028;15.444;2022-08-20T14:03:46;22.50;99.90
17944;DHT22;9097;47.028;15.444;2022-08-20T14:06:49;22.50;99.90
17944;DHT22;9097;47.028;15.444;2022-08-20T14:09:53;22.60;99.90
17944;DHT22;9097;47.028;15.444;2022-08-20T14:12:58;22.50;99.90
17944;DHT22;9097;47.028;15.444;2022-08-20T14:16:01;22.60;99.90
17944;DHT22;9097;47.028;15.444;2022-08-20T14:19:03;22.50;99.90
17944;DHT22;9097;47.028;15.444;2022-08-20T14:22:05;22.60;99.90
17944;DHT22;9097;47.028;15.444;2022-08-20T14:25:10;22.60;99.90
17944;DHT22;9097;47.028;15.444;2022-08-20T14:28:16;22.70;99.90
17944;DHT22;9097;47.028;15.444;2022-08-20T14:31:19;22.80;99.90
17944;DHT22;9097;47.028;15.444;2022-08-20T14:34:21;23.00;99.90
17944;DHT22;9097;47.028;15.444;2022-08-20T14:37:26;23.10;99.90
17944;DHT22;9097;47.028;15.444;2022-08-20T14:40:29;23.20;99.90
17944;DHT22;9097;47.028;15.444;2022-08-20T14:43:33;23.30;99.90
17944;DHT22;9097;47.028;15.444;2022-08-20T14:46:35;23.30;99.90
17944;DHT22;9097;47.028;15.444;2022-08-20T14:49:44;23.40;99.90
17944;DHT22;9097;47.028;15.444;2022-08-20T14:52:46;23.50;99.90
17944;DHT22;9097;47.028;15.444;2022-08-20T14:55:49;23.50;99.90
17944;DHT22;9097;47.028;15.444;2022-08-20T14:58:53;23.60;99.90
17944;DHT22;9097;47.028;15.444;2022-08-20T15:01:55;23.60;99.90
17944;DHT22;9097;47.028;15.444;2022-08-20T15:04:57;23.60;99.90
17944;DHT22;9097;47.028;15.444;2022-08-20T15:08:01;23.60;99.90
17944;DHT22;9097;47.028;15.444;2022-08-20T15:11:03;23.60;99.90
17944;DHT22;9097;47.028;15.444;2022-08-20T15:14:09;23.60;99.90
17944;DHT22;9097;47.028;15.444;2022-08-20T15:17:17;23.50;99.90
17944;DHT22;9097;47.028;15.444;2022-08-20T15:20:22;23.50;99.90
17944;DHT22;9097;47.028;15.444;2022-08-20T15:23:27;23.50;99.90
17944;DHT22;9097;47.028;15.444;2022-08-20T15:26:29;23.50;99.90
17944;DHT22;9097;47.028;15.444;2022-08-20T15:29:33;23.50;99.90
17944;DHT22;9097;47.028;15.444;2022-08-20T15:32:36;23.50;99.90
17944;DHT22;9097;47.028;15.444;2022-08-20T15:35:38;23.40;99.90
17944;DHT22;9097;47.028;15.444;2022-08-20T15:38:41;23.40;99.90
17944;DHT22;9097;47.028;15.444;2022-08-20T15:41:43;23.40;99.90
17944;DHT22;9097;47.028;15.444;2022-08-20T15:44:48;23.40;99.90
17944;DHT22;9097;47.028;15.444;2022-08-20T15:47:54;23.40;99.90
17944;DHT22;9097;47.028;15.444;2022-08-20T15:51:20;23.30;99.90
17944;DHT22;9097;47.028;15.444;2022-08-20T15:54:24;23.30;99.90
17944;DHT22;9097;47.028;15.444;2022-08-20T15:57:43;23.30;99.90
17944;DHT22;9097;47.028;15.444;2022-08-20T16:00:52;23.30;99.90
17944;DHT22;9097;47.028;15.444;2022-08-20T16:04:10;23.20;99.90
17944;DHT22;9097;47.028;15.444;2022-08-20T16:07:18;23.20;99.90
17944;DHT22;9097;47.028;15.444;2022-08-20T16:10:26;23.20;99.90
17944;DHT22;9097;47.028;15.444;2022-08-20T16:13:33;23.10;99.90
17944;DHT22;9097;47.028;15.444;2022-08-20T16:16:45;23.10;99.90
17944;DHT22;9097;47.028;15.444;2022-08-20T16:19:53;23.10;99.90
17944;DHT22;9097;47.028;15.444;2022-08-20T16:22:57;23.10;99.90
17944;DHT22;9097;47.028;15.444;2022-08-20T16:26:10;23.10;99.90
17944;DHT22;9097;47.028;15.444;2022-08-20T16:29:18;23.00;99.90
17944;DHT22;9097;47.028;15.444;2022-08-20T16:32:32;23.00;99.90
17944;DHT22;9097;47.028;15.444;2022-08-20T16:35:42;23.00;99.90
17944;DHT22;9097;47.028;15.444;2022-08-20T16:38:51;23.00;99.90
17944;DHT22;9097;47.028;15.444;2022-08-20T16:41:57;22.90;99.90
17944;DHT22;9097;47.028;15.444;2022-08-20T16:45:00;22.90;99.90
17944;DHT22;9097;47.028;15.444;2022-08-20T16:48:06;22.90;99.90
17944;DHT22;9097;47.028;15.444;2022-08-20T16:51:12;22.90;99.90
17944;DHT22;9097;47.028;15.444;2022-08-20T16:54:19;22.80;99.90
17944;DHT22;9097;47.028;15.444;2022-08-20T16:57:26;22.80;99.90
17944;DHT22;9097;47.028;15.444;2022-08-20T17:00:31;22.80;99.90
17944;DHT22;9097;47.028;15.444;2022-08-20T17:03:37;22.80;99.90
17944;DHT22;9097;47.028;15.444;2022-08-20T17:06:45;22.80;99.90
17944;DHT22;9097;47.028;15.444;2022-08-20T17:09:48;22.70;99.90
17944;DHT22;9097;47.028;15.444;2022-08-20T17:12:54;22.80;99.90
17944;DHT22;9097;47.028;15.444;2022-08-20T17:16:01;22.80;99.90
17944;DHT22;9097;47.028;15.444;2022-08-20T17:19:25;22.80;99.90
17944;DHT22;9097;47.028;15.444;2022-08-20T17:22:29;22.70;99.90
17944;DHT22;9097;47.028;15.444;2022-08-20T17:25:34;22.80;99.90
17944;DHT22;9097;47.028;15.444;2022-08-20T17:28:38;22.70;99.90
17944;DHT22;9097;47.028;15.444;2022-08-20T17:31:51;22.70;99.90
17944;DHT22;9097;47.028;15.444;2022-08-20T17:34:57;22.70;99.90
17944;DHT22;9097;47.028;15.444;2022-08-20T17:38:02;22.70;99.90
17944;DHT22;9097;47.028;15.444;2022-08-20T17:41:09;22.70;99.90
17944;DHT22;9097;47.028;15.444;2022-08-20T17:44:19;22.70;99.90
17944;DHT22;9097;47.028;15.444;2022-08-20T17:47:29;22.70;99.90
17944;DHT22;9097;47.028;15.444;2022-08-20T17:50:38;22.70;99.90
17944;DHT22;9097;47.028;15.444;2022-08-20T17:53:42;22.70;99.90
17944;DHT22;9097;47.028;15.444;2022-08-20T17:56:45;22.70;99.90
17944;DHT22;9097;47.028;15.444;2022-08-20T17:59:51;22.60;99.90
17944;DHT22;9097;47.028;15.444;2022-08-20T18:02:58;22.60;99.90
17944;DHT22;9097;47.028;15.444;2022-08-20T18:06:09;22.60;99.90
17944;DHT22;9097;47.028;15.444;2022-08-20T18:09:16;22.60;99.90
17944;DHT22;9097;47.028;15.444;2022-08-20T18:12:23;22.60;99.90
17944;DHT22;9097;47.028;15.444;2022-08-20T18:15:30;22.60;99.90
17944;DHT22;9097;47.028;15.444;2022-08-20T18:18:40;22.60;99.90
17944;DHT22;9097;47.028;15.444;2022-08-20T18:22:09;22.60;99.90
17944;DHT22;9097;47.028;15.444;2022-08-20T18:25:30;22.60;99.90
17944;DHT22;9097;47.028;15.444;2022-08-20T18:28:37;22.50;99.90
17944;DHT22;9097;47.028;15.444;2022-08-20T18:31:44;22.50;99.90
17944;DHT22;9097;47.028;15.444;2022-08-20T18:34:48;22.50;99.90
17944;DHT22;9097;47.028;15.444;2022-08-20T18:37:54;22.50;99.90
17944;DHT22;9097;47.028;15.444;2022-08-20T18:41:09;22.50;99.90
17944;DHT22;9097;47.028;15.444;2022-08-20T18:44:14;22.50;99.90
17944;DHT22;9097;47.028;15.444;2022-08-20T18:47:39;22.40;99.90
17944;DHT22;9097;47.028;15.444;2022-08-20T18:50:45;22.50;99.90
17944;DHT22;9097;47.028;15.444;2022-08-20T18:53:50;22.40;99.90
17944;DHT22;9097;47.028;15.444;2022-08-20T18:57:02;22.40;99.90
17944;DHT22;9097;47.028;15.444;2022-08-20T19:00:10;22.40;99.90
17944;DHT22;9097;47.028;15.444;2022-08-20T19:03:18;22.40;99.90
17944;DHT22;9097;47.028;15.444;2022-08-20T19:06:43;22.40;99.90
17944;DHT22;9097;47.028;15.444;2022-08-20T19:10:09;22.40;99.90
17944;DHT22;9097;47.028;15.444;2022-08-20T19:13:47;22.40;99.90
17944;DHT22;9097;47.028;15.444;2022-08-20T19:16:58;22.30;99.90
17944;DHT22;9097;47.028;15.444;2022-08-20T19:20:05;22.20;99.90
17944;DHT22;9097;47.028;15.444;2022-08-20T19:23:12;22.40;99.90
17944;DHT22;9097;47.028;15.444;2022-08-20T19:26:20;22.20;99.90
17944;DHT22;9097;47.028;15.444;2022-08-20T19:29:26;22.20;99.90
17944;DHT22;9097;47.028;15.444;2022-08-20T19:32:33;22.20;99.90
17944;DHT22;9097;47.028;15.444;2022-08-20T19:35:36;22.20;99.90
17944;DHT22;9097;47.028;15.444;2022-08-20T19:38:43;22.10;99.90
17944;DHT22;9097;47.028;15.444;2022-08-20T19:41:50;22.10;99.90
17944;DHT22;9097;47.028;15.444;2022-08-20T19:44:55;22.20;99.90
17944;DHT22;9097;47.028;15.444;2022-08-20T19:48:09;22.10;99.90
17944;DHT22;9097;47.028;15.444;2022-08-20T19:51:19;22.20;99.90
17944;DHT22;9097;47.028;15.444;2022-08-20T19:54:24;22.10;99.90
17944;DHT22;9097;47.028;15.444;2022-08-20T19:57:29;22.10;99.90
17944;DHT22;9097;47.028;15.444;2022-08-20T20:00:38;22.10;99.90
17944;DHT22;9097;47.028;15.444;2022-08-20T20:03:51;22.10;99.90
17944;DHT22;9097;47.028;15.444;2022-08-20T20:06:54;22.10;99.90
17944;DHT22;9097;47.028;15.444;2022-08-20T20:09:58;22.10;99.90
17944;DHT22;9097;47.028;15.444;2022-08-20T20:13:07;22.10;99.90
17944;DHT22;9097;47.028;15.444;2022-08-20T20:16:12;22.10;99.90
17944;DHT22;9097;47.028;15.444;2022-08-20T20:19:15;22.10;99.90
17944;DHT22;9097;47.028;15.444;2022-08-20T20:22:24;22.10;99.90
17944;DHT22;9097;47.028;15.444;2022-08-20T20:25:37;22.10;99.90
17944;DHT22;9097;47.028;15.444;2022-08-20T20:28:48;22.10;99.90
17944;DHT22;9097;47.028;15.444;2022-08-20T20:31:53;22.10;99.90
17944;DHT22;9097;47.028;15.444;2022-08-20T20:34:57;22.00;99.90
17944;DHT22;9097;47.028;15.444;2022-08-20T20:38:03;22.00;99.90
17944;DHT22;9097;47.028;15.444;2022-08-20T20:41:17;22.00;99.90
17944;DHT22;9097;47.028;15.444;2022-08-20T20:44:25;22.00;99.90
17944;DHT22;9097;47.028;15.444;2022-08-20T20:47:30;22.00;99.90
17944;DHT22;9097;47.028;15.444;2022-08-20T20:50:34;22.00;99.90
17944;DHT22;9097;47.028;15.444;2022-08-20T20:53:42;22.00;99.90
17944;DHT22;9097;47.028;15.444;2022-08-20T20:57:00;22.00;99.90
17944;DHT22;9097;47.028;15.444;2022-08-20T21:00:07;21.90;99.90
17944;DHT22;9097;47.028;15.444;2022-08-20T21:03:11;22.00;99.90
17944;DHT22;9097;47.028;15.444;2022-08-20T21:06:14;21.90;99.90
17944;DHT22;9097;47.028;15.444;2022-08-20T21:09:17;21.90;99.90
17944;DHT22;9097;47.028;15.444;2022-08-20T21:12:20;21.90;99.90
17944;DHT22;9097;47.028;15.444;2022-08-20T21:15:25;21.90;99.90
17944;DHT22;9097;47.028;15.444;2022-08-20T21:18:30;21.90;99.90
17944;DHT22;9097;47.028;15.444;2022-08-20T21:21:37;21.80;99.90
17944;DHT22;9097;47.028;15.444;2022-08-20T21:24:43;21.80;99.90
17944;DHT22;9097;47.028;15.444;2022-08-20T21:27:47;21.80;99.90
17944;DHT22;9097;47.028;15.444;2022-08-20T21:30:52;21.70;99.90
17944;DHT22;9097;47.028;15.444;2022-08-20T21:33:54;21.70;99.90
17944;DHT22;9097;47.028;15.444;2022-08-20T21:36:56;21.70;99.90
17944;DHT22;9097;47.028;15.444;2022-08-20T21:39:59;21.70;99.90
17944;DHT22;9097;47.028;15.444;2022-08-20T21:43:01;21.60;99.90
17944;DHT22;9097;47.028;15.444;2022-08-20T21:46:07;21.60;99.90
17944;DHT22;9097;47.028;15.444;2022-08-20T21:49:10;21.60;99.90
17944;DHT22;9097;47.028;15.444;2022-08-20T21:52:14;21.60;99.90
17944;DHT22;9097;47.028;15.444;2022-08-20T21:55:16;21.50;99.90
17944;DHT22;9097;47.028;15.444;2022-08-20T21:58:20;21.50;99.90
17944;DHT22;9097;47.028;15.444;2022-08-20T22:01:25;21.50;99.90
17944;DHT22;9097;47.028;15.444;2022-08-20T22:04:27;21.50;99.90
17944;DHT22;9097;47.028;15.444;2022-08-20T22:07:29;21.50;99.90
17944;DHT22;9097;47.028;15.444;2022-08-20T22:10:32;21.50;99.90
17944;DHT22;9097;47.028;15.444;2022-08-20T22:13:35;21.40;99.90
17944;DHT22;9097;47.028;15.444;2022-08-20T22:16:39;21.40;99.90
17944;DHT22;9097;47.028;15.444;2022-08-20T22:19:41;21.40;99.90
17944;DHT22;9097;47.028;15.444;2022-08-20T22:22:44;21.30;99.90
